createdAt,value
2019-03-09T00:00:16.712Z,7.20
2019-03-09T00:02:48.523Z,7.37
2019-03-09T00:05:19.005Z,7.60
2019-03-09T00:07:49.488Z,8.10
2019-03-09T00:10:19.551Z,7.73
2019-03-09T00:12:50.025Z,8.17
2019-03-09T00:15:20.312Z,7.73
2019-03-09T00:17:50.904Z,8.77
2019-03-09T00:20:20.884Z,7.53
2019-03-09T00:22:56.854Z,7.47
2019-03-09T00:25:31.820Z,7.67
2019-03-09T00:28:08.517Z,7.87
2019-03-09T00:30:50.687Z,9.40
2019-03-09T00:33:21.255Z,8.50
2019-03-09T00:35:51.925Z,8.87
2019-03-09T00:38:21.912Z,7.90
2019-03-09T00:40:52.676Z,7.77
2019-03-09T00:43:23.337Z,7.87
2019-03-09T00:45:53.366Z,6.30
2019-03-09T00:48:23.881Z,6.20
2019-03-09T00:50:54.204Z,6.40
2019-03-09T00:53:24.772Z,5.87
2019-03-09T00:55:54.992Z,6.27
2019-03-09T00:58:25.290Z,5.50
2019-03-09T01:00:55.544Z,5.30
2019-03-09T01:03:26.377Z,5.33
2019-03-09T01:05:56.658Z,4.87
2019-03-09T01:08:26.721Z,5.33
2019-03-09T01:10:57.215Z,5.90
2019-03-09T01:13:27.630Z,5.67
2019-03-09T01:15:57.984Z,5.80
2019-03-09T01:18:29.334Z,6.27
2019-03-09T01:20:59.404Z,5.97
2019-03-09T01:23:29.515Z,5.97
2019-03-09T01:26:01.637Z,5.50
2019-03-09T01:28:31.692Z,6.40
2019-03-09T01:31:04.996Z,6.97
2019-03-09T01:33:37.580Z,5.50
2019-03-09T01:36:07.629Z,7.27
2019-03-09T01:38:38.259Z,5.60
2019-03-09T01:41:08.531Z,6.23
2019-03-09T01:43:38.694Z,6.17
2019-03-09T01:46:08.853Z,5.93
2019-03-09T01:48:39.067Z,5.97
2019-03-09T01:51:09.153Z,4.63
2019-03-09T01:53:39.517Z,5.53
2019-03-09T01:56:10.412Z,6.03
2019-03-09T01:58:40.875Z,6.30
2019-03-09T02:01:10.936Z,6.10
2019-03-09T02:03:41.220Z,6.37
2019-03-09T02:06:11.318Z,6.93
2019-03-09T02:08:41.600Z,6.87
2019-03-09T02:11:12.404Z,6.80
2019-03-09T02:13:42.626Z,7.00
2019-03-09T02:16:12.800Z,6.67
2019-03-09T02:18:42.954Z,6.90
2019-03-09T02:21:12.939Z,8.20
2019-03-09T02:23:43.407Z,8.10
2019-03-09T02:26:14.068Z,7.90
2019-03-09T02:28:44.101Z,8.00
2019-03-09T02:31:14.368Z,8.00
2019-03-09T02:33:44.666Z,7.50
2019-03-09T02:36:15.045Z,7.53
2019-03-09T02:38:50.865Z,7.27
2019-03-09T02:41:21.053Z,7.80
2019-03-09T02:43:51.171Z,7.37
2019-03-09T02:46:21.487Z,7.93
2019-03-09T02:48:51.899Z,7.87
2019-03-09T02:51:22.203Z,8.17
2019-03-09T02:53:52.393Z,7.93
2019-03-09T02:56:23.055Z,8.17
2019-03-09T02:58:53.115Z,7.60
2019-03-09T03:01:41.326Z,8.40
2019-03-09T03:04:11.426Z,8.17
2019-03-09T03:06:41.607Z,8.90
2019-03-09T03:09:12.569Z,7.93
2019-03-09T03:11:42.709Z,7.00
2019-03-09T03:14:12.835Z,7.77
2019-03-09T03:16:43.437Z,8.20
2019-03-09T03:19:13.525Z,8.33
2019-03-09T03:21:45.360Z,9.27
2019-03-09T03:24:15.907Z,8.40
2019-03-09T03:26:46.140Z,8.40
2019-03-09T03:29:16.316Z,9.10
2019-03-09T03:31:46.610Z,8.60
2019-03-09T03:34:16.634Z,8.80
2019-03-09T03:36:49.786Z,9.20
2019-03-09T03:39:20.642Z,8.20
2019-03-09T03:41:51.042Z,7.87
2019-03-09T03:44:21.365Z,8.70
2019-03-09T03:46:52.004Z,8.80
2019-03-09T03:49:22.314Z,8.03
2019-03-09T03:51:52.606Z,7.07
2019-03-09T03:54:22.775Z,7.03
2019-03-09T03:56:53.428Z,6.57
2019-03-09T03:59:24.178Z,6.73
2019-03-09T04:01:53.957Z,6.43
2019-03-09T04:04:23.941Z,6.53
2019-03-09T04:06:54.791Z,5.80
2019-03-09T04:09:24.831Z,6.03
2019-03-09T04:11:55.135Z,5.87
2019-03-09T04:14:25.413Z,5.93
2019-03-09T04:16:55.183Z,4.90
2019-03-09T04:19:25.142Z,4.90
2019-03-09T04:21:55.480Z,4.33
2019-03-09T04:24:25.483Z,4.97
2019-03-09T04:26:55.347Z,4.50
2019-03-09T04:29:25.332Z,5.20
2019-03-09T04:31:55.329Z,4.60
2019-03-09T04:34:25.140Z,4.23
2019-03-09T04:37:04.527Z,3.70
2019-03-09T04:39:34.684Z,4.13
2019-03-09T04:42:04.695Z,4.80
2019-03-09T04:44:34.658Z,3.80
2019-03-09T04:47:04.548Z,3.97
2019-03-09T04:49:34.439Z,4.37
2019-03-09T04:52:04.824Z,4.57
2019-03-09T04:54:34.767Z,4.60
2019-03-09T04:57:04.733Z,3.80
2019-03-09T04:59:35.281Z,4.57
2019-03-09T05:02:05.467Z,4.27
2019-03-09T05:04:54.529Z,4.80
2019-03-09T05:07:48.771Z,5.10
2019-03-09T05:10:43.858Z,4.40
2019-03-09T05:13:29.739Z,4.10
2019-03-09T05:15:59.991Z,4.83
2019-03-09T05:18:29.917Z,4.90
2019-03-09T05:20:59.960Z,5.07
2019-03-09T05:23:30.107Z,4.20
2019-03-09T05:26:00.263Z,4.33
2019-03-09T05:28:30.899Z,4.60
2019-03-09T05:31:01.031Z,4.13
2019-03-09T05:33:31.380Z,4.17
2019-03-09T05:36:01.506Z,4.07
2019-03-09T05:38:31.250Z,4.60
2019-03-09T05:41:01.119Z,4.43
2019-03-09T05:43:31.826Z,3.90
2019-03-09T05:46:01.821Z,4.40
2019-03-09T05:48:32.066Z,4.40
2019-03-09T05:51:02.123Z,4.37
2019-03-09T05:53:32.299Z,5.07
2019-03-09T05:56:02.398Z,4.47
2019-03-09T05:58:32.469Z,4.20
2019-03-09T06:01:02.469Z,4.40
2019-03-09T06:03:32.331Z,4.70
2019-03-09T06:06:20.780Z,4.20
2019-03-09T06:08:51.614Z,4.47
2019-03-09T06:11:21.900Z,4.63
2019-03-09T06:13:52.232Z,4.20
2019-03-09T06:16:22.460Z,4.60
2019-03-09T06:18:52.399Z,4.90
2019-03-09T06:21:22.843Z,4.70
2019-03-09T06:23:52.844Z,4.40
2019-03-09T06:26:22.816Z,5.20
2019-03-09T06:28:53.287Z,5.40
2019-03-09T06:31:23.119Z,4.53
2019-03-09T06:33:55.253Z,4.60
2019-03-09T06:36:49.790Z,4.27
2019-03-09T06:39:38.195Z,4.17
2019-03-09T06:42:44.242Z,4.97
2019-03-09T06:45:15.727Z,4.10
2019-03-09T06:47:45.841Z,4.63
2019-03-09T06:50:18.328Z,4.50
2019-03-09T06:52:48.135Z,4.60
2019-03-09T06:55:18.216Z,4.53
2019-03-09T06:57:48.630Z,4.90
2019-03-09T07:00:37.454Z,5.10
2019-03-09T07:03:10.035Z,5.30
2019-03-09T07:05:40.026Z,4.40
2019-03-09T07:08:11.043Z,5.00
2019-03-09T07:10:41.098Z,5.37
2019-03-09T07:13:11.031Z,4.53
2019-03-09T07:15:43.125Z,4.63
2019-03-09T07:18:21.091Z,4.70
2019-03-09T07:20:50.974Z,4.87
2019-03-09T07:23:21.008Z,4.97
2019-03-09T07:25:51.083Z,4.80
2019-03-09T07:28:21.310Z,5.73
2019-03-09T07:30:56.834Z,4.60
2019-03-09T07:33:27.373Z,4.93
2019-03-09T07:35:59.330Z,5.40
2019-03-09T07:38:29.407Z,4.80
2019-03-09T07:41:02.254Z,4.63
2019-03-09T07:43:32.295Z,4.50
2019-03-09T07:46:02.002Z,4.40
2019-03-09T07:48:32.187Z,4.27
2019-03-09T07:51:02.168Z,3.80
2019-03-09T07:53:32.158Z,4.07
2019-03-09T07:56:02.962Z,4.10
2019-03-09T07:58:33.171Z,3.93
2019-03-09T08:01:02.936Z,3.20
2019-03-09T08:03:33.126Z,3.53
2019-03-09T08:06:03.216Z,3.80
2019-03-09T08:08:33.087Z,3.03
2019-03-09T08:11:03.215Z,2.97
2019-03-09T08:13:32.921Z,2.73
2019-03-09T08:16:02.932Z,3.30
2019-03-09T08:18:32.942Z,3.20
2019-03-09T08:21:05.564Z,2.90
2019-03-09T08:23:35.466Z,3.03
2019-03-09T08:26:05.219Z,3.53
2019-03-09T08:28:35.176Z,2.40
2019-03-09T08:31:05.703Z,2.47
2019-03-09T08:33:35.846Z,3.23
2019-03-09T08:36:05.644Z,3.50
2019-03-09T08:38:36.099Z,3.43
2019-03-09T08:41:06.538Z,2.80
2019-03-09T08:43:36.573Z,3.10
2019-03-09T08:46:06.989Z,2.70
2019-03-09T08:48:36.902Z,2.60
2019-03-09T08:51:07.023Z,2.90
2019-03-09T08:53:36.887Z,3.03
2019-03-09T08:56:07.018Z,3.00
2019-03-09T08:58:36.778Z,3.13
2019-03-09T09:01:08.158Z,2.80
2019-03-09T09:03:44.242Z,3.80
2019-03-09T09:06:15.491Z,3.83
2019-03-09T09:08:50.223Z,3.40
2019-03-09T09:11:22.784Z,3.50
2019-03-09T09:13:54.692Z,3.80
2019-03-09T09:16:29.805Z,4.03
2019-03-09T09:19:04.610Z,4.13
2019-03-09T09:21:34.813Z,3.57
2019-03-09T09:24:07.144Z,3.97
2019-03-09T09:26:36.948Z,3.90
2019-03-09T09:29:07.820Z,4.43
2019-03-09T09:31:38.385Z,3.50
2019-03-09T09:34:08.515Z,4.00
2019-03-09T09:36:39.028Z,4.40
2019-03-09T09:39:10.403Z,4.00
2019-03-09T09:41:40.290Z,4.03
2019-03-09T09:44:10.019Z,4.50
2019-03-09T09:46:40.863Z,4.80
2019-03-09T09:49:20.890Z,4.50
2019-03-09T09:51:51.107Z,4.10
2019-03-09T09:54:25.034Z,4.50
2019-03-09T09:56:59.454Z,5.00
2019-03-09T09:59:26.970Z,4.50
2019-03-09T10:02:01.032Z,4.57
2019-03-09T10:04:34.061Z,4.90
2019-03-09T10:07:13.016Z,5.37
2019-03-09T10:09:44.877Z,5.07
2019-03-09T10:12:18.516Z,4.70
2019-03-09T10:14:48.700Z,4.90
2019-03-09T10:17:19.290Z,5.23
2019-03-09T10:19:50.720Z,5.30
2019-03-09T10:22:20.946Z,4.80
2019-03-09T10:24:54.164Z,5.53
2019-03-09T10:27:25.264Z,4.87
2019-03-09T10:29:59.156Z,5.10
2019-03-09T10:32:32.802Z,4.70
2019-03-09T10:35:14.415Z,4.43
2019-03-09T10:37:44.539Z,4.80
2019-03-09T10:40:18.188Z,4.73
2019-03-09T10:42:50.363Z,4.57
2019-03-09T10:45:21.928Z,4.97
2019-03-09T10:47:52.408Z,5.00
2019-03-09T10:50:26.084Z,4.50
2019-03-09T10:52:56.799Z,4.70
2019-03-09T10:55:27.057Z,5.03
2019-03-09T10:57:57.096Z,4.40
2019-03-09T11:00:30.145Z,4.40
2019-03-09T11:03:00.176Z,5.30
2019-03-09T11:05:30.796Z,4.40
2019-03-09T11:08:01.362Z,4.90
2019-03-09T11:10:31.843Z,4.70
2019-03-09T11:13:02.217Z,4.70
2019-03-09T11:15:32.687Z,4.50
2019-03-09T11:18:02.668Z,4.70
2019-03-09T11:20:32.825Z,5.13
2019-03-09T11:23:03.025Z,4.50
2019-03-09T11:25:33.504Z,5.23
2019-03-09T11:28:09.627Z,5.73
2019-03-09T11:30:39.698Z,5.70
2019-03-09T11:33:10.002Z,6.20
2019-03-09T11:35:43.714Z,6.20
2019-03-09T11:38:15.387Z,7.13
2019-03-09T11:40:56.666Z,6.57
2019-03-09T11:43:18.144Z,7.43
2019-03-09T11:45:48.171Z,7.70
2019-03-09T11:48:18.533Z,7.67
2019-03-09T11:50:51.776Z,8.10
2019-03-09T11:53:22.198Z,8.90
2019-03-09T11:55:52.315Z,8.27
2019-03-09T11:58:22.596Z,8.30
2019-03-09T12:00:53.144Z,8.13
2019-03-09T12:03:23.481Z,8.87
2019-03-09T12:05:53.551Z,7.90
2019-03-09T12:08:26.788Z,8.57
2019-03-09T12:11:00.277Z,7.93
2019-03-09T12:13:31.081Z,7.63
2019-03-09T12:16:04.751Z,8.00
2019-03-09T12:18:34.976Z,8.90
2019-03-09T12:21:05.571Z,7.50
2019-03-09T12:23:37.686Z,8.07
2019-03-09T12:26:10.929Z,9.07
2019-03-09T12:28:46.398Z,8.83
2019-03-09T12:31:29.296Z,8.03
2019-03-09T12:34:02.958Z,8.03
2019-03-09T12:36:33.364Z,8.30
2019-03-09T12:39:07.492Z,7.90
2019-03-09T12:41:52.605Z,9.03
2019-03-09T12:44:22.719Z,8.60
2019-03-09T12:46:54.894Z,8.50
2019-03-09T12:49:29.980Z,8.27
2019-03-09T12:52:31.853Z,8.67
2019-03-09T12:55:01.871Z,6.80
2019-03-09T12:57:33.424Z,6.50
2019-03-09T13:00:03.685Z,6.80
2019-03-09T13:02:34.189Z,6.53
2019-03-09T13:05:07.747Z,6.90
2019-03-09T13:07:38.101Z,6.60
2019-03-09T13:10:08.421Z,7.17
2019-03-09T13:12:39.733Z,6.67
2019-03-09T13:15:10.137Z,7.47
2019-03-09T13:17:44.723Z,6.80
2019-03-09T13:20:15.025Z,6.63
2019-03-09T13:22:45.268Z,6.70
2019-03-09T13:25:16.171Z,6.67
2019-03-09T13:27:46.648Z,6.17
2019-03-09T13:30:24.958Z,6.00
2019-03-09T13:32:57.484Z,6.63
2019-03-09T13:35:27.065Z,6.87
2019-03-09T13:37:57.216Z,6.00
2019-03-09T13:40:30.589Z,5.17
2019-03-09T13:43:03.328Z,5.47
2019-03-09T13:45:33.590Z,5.30
2019-03-09T13:48:04.388Z,5.60
2019-03-09T13:50:34.752Z,5.87
2019-03-09T13:53:04.835Z,5.53
2019-03-09T13:55:35.065Z,4.80
2019-03-09T13:58:06.870Z,5.43
2019-03-09T14:00:49.236Z,4.83
2019-03-09T14:03:19.519Z,3.33
2019-03-09T14:05:49.721Z,3.60
2019-03-09T14:08:24.300Z,3.20
2019-03-09T14:10:59.231Z,2.97
2019-03-09T14:13:29.474Z,3.00
2019-03-09T14:16:00.113Z,3.70
2019-03-09T14:18:31.414Z,4.00
2019-03-09T14:21:03.090Z,4.10
2019-03-09T14:23:33.229Z,4.70
2019-03-09T14:26:03.445Z,4.20
2019-03-09T14:28:34.672Z,4.70
2019-03-09T14:31:08.019Z,4.10
2019-03-09T14:33:39.909Z,4.67
2019-03-09T14:36:10.268Z,3.60
2019-03-09T14:38:43.697Z,4.70
2019-03-09T14:41:17.374Z,4.63
2019-03-09T14:43:47.433Z,4.37
2019-03-09T14:46:20.598Z,4.17
2019-03-09T14:48:54.579Z,4.87
2019-03-09T14:51:25.086Z,4.80
2019-03-09T14:54:09.209Z,4.70
2019-03-09T14:56:38.304Z,4.97
2019-03-09T14:59:15.799Z,5.37
2019-03-09T15:01:46.181Z,5.83
2019-03-09T15:04:16.250Z,5.00
2019-03-09T15:06:47.109Z,4.63
2019-03-09T15:09:19.738Z,5.23
2019-03-09T15:11:54.936Z,5.13
2019-03-09T15:14:26.610Z,4.57
2019-03-09T15:16:56.768Z,3.67
2019-03-09T15:19:27.659Z,4.10
2019-03-09T15:21:57.997Z,4.73
2019-03-09T15:24:28.156Z,3.90
2019-03-09T15:27:01.520Z,4.47
2019-03-09T15:29:32.847Z,3.70
2019-03-09T15:32:05.503Z,4.47
2019-03-09T15:34:42.332Z,4.33
2019-03-09T15:37:12.626Z,4.70
2019-03-09T15:39:50.951Z,5.13
2019-03-09T15:42:29.653Z,5.07
2019-03-09T15:44:59.468Z,2.20
2019-03-09T15:47:31.991Z,1.90
2019-03-09T15:50:02.248Z,1.57
2019-03-09T15:52:33.233Z,1.70
2019-03-09T15:55:03.503Z,1.50
2019-03-09T15:57:33.826Z,1.53
2019-03-09T16:00:05.544Z,1.20
2019-03-09T16:02:46.382Z,1.10
2019-03-09T16:05:17.013Z,1.40
2019-03-09T16:07:47.344Z,1.37
2019-03-09T16:10:21.361Z,1.33
2019-03-09T16:12:53.454Z,1.00
2019-03-09T16:15:23.685Z,1.20
2019-03-09T16:17:54.232Z,1.10
2019-03-09T16:20:24.393Z,1.60
2019-03-09T16:22:55.493Z,1.40
2019-03-09T16:25:28.862Z,1.33
2019-03-09T16:28:00.578Z,1.30
2019-03-09T16:30:31.026Z,1.43
2019-03-09T16:33:03.630Z,1.17
2019-03-09T16:35:34.160Z,1.53
2019-03-09T16:38:08.168Z,1.30
2019-03-09T16:40:40.720Z,1.37
2019-03-09T16:43:14.090Z,1.20
2019-03-09T16:45:46.326Z,1.20
2019-03-09T16:48:23.001Z,1.00
2019-03-09T16:50:53.381Z,1.30
2019-03-09T16:53:24.591Z,1.30
2019-03-09T16:55:55.005Z,1.23
2019-03-09T16:58:29.332Z,1.10
2019-03-09T17:00:59.655Z,1.33
2019-03-09T17:03:32.588Z,1.93
2019-03-09T17:06:07.343Z,1.40
2019-03-09T17:08:37.976Z,1.50
2019-03-09T17:11:09.187Z,1.63
2019-03-09T17:13:39.943Z,2.00
2019-03-09T17:16:10.119Z,1.67
2019-03-09T17:18:40.194Z,1.40
2019-03-09T17:21:12.069Z,1.70
2019-03-09T17:23:42.224Z,1.60
2019-03-09T17:26:14.454Z,1.83
2019-03-09T17:28:47.248Z,1.50
2019-03-09T17:31:19.122Z,1.53
2019-03-09T17:33:51.012Z,1.50
2019-03-09T17:36:25.396Z,2.20
2019-03-09T17:38:59.870Z,2.10
2019-03-09T17:41:33.123Z,1.30
2019-03-09T17:44:03.135Z,1.77
2019-03-09T17:46:35.687Z,1.50
2019-03-09T17:49:09.279Z,1.33
2019-03-09T17:51:41.056Z,1.10
2019-03-09T17:54:12.416Z,1.10
2019-03-09T17:56:42.466Z,1.27
2019-03-09T17:59:13.769Z,1.00
2019-03-09T18:01:45.886Z,1.20
2019-03-09T18:04:26.452Z,1.60
2019-03-09T18:06:57.196Z,1.40
2019-03-09T18:09:29.606Z,1.30
2019-03-09T18:12:01.904Z,1.40
2019-03-09T18:14:33.174Z,1.00
2019-03-09T18:17:04.195Z,1.13
2019-03-09T18:19:35.760Z,1.20
2019-03-09T18:22:09.553Z,1.50
2019-03-09T18:24:40.216Z,1.20
2019-03-09T18:27:12.378Z,1.40
2019-03-09T18:29:42.583Z,0.90
2019-03-09T18:32:12.885Z,0.83
2019-03-09T18:34:43.313Z,1.07
2019-03-09T18:37:13.344Z,1.17
2019-03-09T18:39:44.821Z,1.10
2019-03-09T18:42:15.407Z,1.17
2019-03-09T18:44:45.726Z,0.90
2019-03-09T18:47:18.520Z,0.90
2019-03-09T18:49:49.857Z,1.50
2019-03-09T18:52:22.754Z,1.27
2019-03-09T18:54:53.009Z,0.93
2019-03-09T18:57:26.402Z,1.00
2019-03-09T18:59:56.528Z,1.20
2019-03-09T19:02:28.071Z,1.17
2019-03-09T19:04:59.240Z,1.00
2019-03-09T19:07:29.808Z,1.60
2019-03-09T19:10:02.649Z,1.10
2019-03-09T19:12:33.541Z,0.90
2019-03-09T19:15:08.779Z,1.53
2019-03-09T19:17:42.521Z,1.30
2019-03-09T19:20:13.438Z,1.20
2019-03-09T19:22:43.856Z,1.87
2019-03-09T19:25:17.562Z,1.40
2019-03-09T19:27:53.225Z,1.50
2019-03-09T19:30:26.115Z,1.60
2019-03-09T19:33:00.402Z,1.53
2019-03-09T19:35:28.293Z,1.90
2019-03-09T19:37:58.613Z,1.23
2019-03-09T19:40:35.342Z,1.50
2019-03-09T19:43:08.513Z,1.67
2019-03-09T19:45:40.128Z,1.77
2019-03-09T19:48:12.281Z,1.90
2019-03-09T19:50:45.279Z,1.57
2019-03-09T19:53:15.636Z,1.77
2019-03-09T19:55:47.041Z,1.70
2019-03-09T19:58:18.415Z,1.63
2019-03-09T20:00:50.568Z,1.77
2019-03-09T20:03:20.911Z,2.00
2019-03-09T20:05:51.577Z,1.33
2019-03-09T20:08:24.331Z,1.67
2019-03-09T20:10:58.692Z,2.80
2019-03-09T20:13:30.633Z,2.43
2019-03-09T20:16:00.812Z,1.87
2019-03-09T20:18:34.318Z,1.67
2019-03-09T20:21:06.056Z,2.30
2019-03-09T20:23:36.280Z,1.13
2019-03-09T20:26:09.726Z,1.70
2019-03-09T20:28:41.663Z,1.87
2019-03-09T20:31:15.926Z,1.80
2019-03-09T20:33:46.237Z,1.57
2019-03-09T20:36:20.132Z,1.40
2019-03-09T20:38:50.049Z,1.60
2019-03-09T20:41:25.658Z,1.97
2019-03-09T20:44:01.905Z,2.30
2019-03-09T20:46:41.713Z,1.90
2019-03-09T20:49:08.438Z,1.70
2019-03-09T20:51:47.301Z,1.57
2019-03-09T20:54:17.704Z,2.20
2019-03-09T20:56:58.805Z,2.10
2019-03-09T20:59:32.630Z,1.63
2019-03-09T21:02:10.542Z,2.13
2019-03-09T21:04:40.523Z,1.53
2019-03-09T21:07:18.695Z,2.23
2019-03-09T21:09:55.914Z,1.70
2019-03-09T21:12:30.085Z,2.13
2019-03-09T21:15:02.991Z,1.73
2019-03-09T21:17:35.692Z,1.90
2019-03-09T21:20:11.733Z,2.17
2019-03-09T21:22:52.077Z,2.30
2019-03-09T21:25:21.850Z,2.20
2019-03-09T21:27:55.567Z,1.73
2019-03-09T21:30:32.527Z,1.77
2019-03-09T21:33:02.376Z,1.90
2019-03-09T21:35:38.394Z,2.80
2019-03-09T21:38:08.576Z,2.00
2019-03-09T21:40:47.100Z,2.53
2019-03-09T21:43:20.778Z,1.70
2019-03-09T21:45:51.031Z,2.03
2019-03-09T21:48:21.344Z,2.53
2019-03-09T21:50:52.095Z,2.13
2019-03-09T21:53:24.171Z,2.50
2019-03-09T21:55:59.014Z,2.67
2019-03-09T21:58:31.744Z,2.30
2019-03-09T22:01:01.760Z,2.10
2019-03-09T22:03:35.567Z,2.27
2019-03-09T22:06:07.905Z,2.67
2019-03-09T22:08:38.113Z,2.73
2019-03-09T22:11:08.440Z,1.80
2019-03-09T22:13:41.339Z,2.13
2019-03-09T22:16:11.356Z,2.10
2019-03-09T22:18:43.781Z,2.73
2019-03-09T22:21:16.565Z,2.80
2019-03-09T22:23:50.032Z,2.77
2019-03-09T22:26:20.029Z,2.30
2019-03-09T22:28:50.558Z,2.43
2019-03-09T22:31:22.402Z,3.00
2019-03-09T22:33:55.161Z,2.50
2019-03-09T22:36:26.520Z,3.33
2019-03-09T22:38:57.171Z,2.90
2019-03-09T22:41:27.320Z,3.20
2019-03-09T22:43:58.002Z,2.70
2019-03-09T22:46:28.071Z,2.87
2019-03-09T22:48:58.535Z,3.00
2019-03-09T22:51:29.279Z,2.80
2019-03-09T22:54:00.431Z,2.80
2019-03-09T22:56:30.580Z,3.53
2019-03-09T22:59:00.758Z,2.60
2019-03-09T23:01:33.968Z,3.03
2019-03-09T23:04:07.442Z,2.87
2019-03-09T23:06:40.966Z,2.93
2019-03-09T23:09:13.857Z,2.80
2019-03-09T23:11:46.177Z,2.23
2019-03-09T23:14:16.598Z,2.30
2019-03-09T23:16:47.379Z,2.30
2019-03-09T23:19:17.340Z,3.00
2019-03-09T23:21:49.982Z,2.60
2019-03-09T23:24:20.361Z,2.23
2019-03-09T23:26:50.609Z,2.30
2019-03-09T23:29:22.908Z,2.90
2019-03-09T23:31:54.913Z,2.70
2019-03-09T23:34:25.048Z,2.33
2019-03-09T23:36:55.376Z,2.77
2019-03-09T23:39:27.544Z,3.40
2019-03-09T23:42:00.351Z,2.60
2019-03-09T23:44:30.679Z,2.83
2019-03-09T23:47:02.136Z,2.50
2019-03-09T23:49:33.281Z,2.77
2019-03-09T23:52:03.913Z,2.57
2019-03-09T23:54:34.161Z,2.30
2019-03-09T23:57:04.389Z,2.10
2019-03-09T23:59:34.667Z,2.37
